createdAt,value
2023-03-11T00:00:18.710Z,94131.09
2023-03-11T00:02:50.635Z,94113.38
2023-03-11T00:05:21.442Z,94137.25
2023-03-11T00:07:49.171Z,94141.00
2023-03-11T00:10:18.112Z,94139.94
2023-03-11T00:12:45.771Z,94126.81
2023-03-11T00:15:14.093Z,94134.34
2023-03-11T00:17:42.313Z,94134.34
2023-03-11T00:20:19.673Z,94143.50
2023-03-11T00:22:50.924Z,94136.78
2023-03-11T00:25:20.136Z,94147.50
2023-03-11T00:27:47.882Z,94138.44
2023-03-11T00:30:17.219Z,94154.47
2023-03-11T00:32:45.711Z,94151.53
2023-03-11T00:35:15.311Z,94152.88
2023-03-11T00:37:43.634Z,94157.69
2023-03-11T00:40:16.976Z,94148.88
2023-03-11T00:42:44.841Z,94145.41
2023-03-11T00:45:16.009Z,94158.50
2023-03-11T00:47:43.967Z,94175.63
2023-03-11T00:50:17.817Z,94169.19
2023-03-11T00:52:46.007Z,94175.06
2023-03-11T00:55:17.828Z,94179.91
2023-03-11T00:57:45.865Z,94172.97
2023-03-11T01:00:15.645Z,94175.09
2023-03-11T01:02:43.756Z,94184.72
2023-03-11T01:05:15.254Z,94188.47
2023-03-11T01:07:43.091Z,94202.66
2023-03-11T01:10:12.290Z,94198.38
2023-03-11T01:12:41.945Z,94189.00
2023-03-11T01:15:17.142Z,94182.06
2023-03-11T01:17:44.945Z,94180.19
2023-03-11T01:20:16.482Z,94171.06
2023-03-11T01:22:44.576Z,94188.47
2023-03-11T01:25:14.457Z,94196.75
2023-03-11T01:27:43.545Z,94181.50
2023-03-11T01:30:15.517Z,94186.56
2023-03-11T01:32:43.602Z,94180.13
2023-03-11T01:35:13.322Z,94196.19
2023-03-11T01:37:41.128Z,94192.72
2023-03-11T01:40:14.231Z,94208.50
2023-03-11T01:42:45.880Z,94213.63
2023-03-11T01:45:41.519Z,94203.72
2023-03-11T01:48:10.151Z,94209.59
2023-03-11T01:50:41.390Z,94213.31
2023-03-11T01:53:10.515Z,94190.84
2023-03-11T01:55:38.769Z,94214.91
2023-03-11T01:58:12.133Z,94211.97
2023-03-11T02:00:40.101Z,94196.97
2023-03-11T02:03:12.196Z,94228.00
2023-03-11T02:05:43.507Z,94209.50
2023-03-11T02:08:11.237Z,94219.38
2023-03-11T02:10:40.104Z,94220.16
2023-03-11T02:13:10.641Z,94214.03
2023-03-11T02:15:40.010Z,94212.38
2023-03-11T02:18:09.146Z,94219.59
2023-03-11T02:20:45.089Z,94215.56
2023-03-11T02:23:14.972Z,94227.06
2023-03-11T02:25:49.466Z,94219.56
2023-03-11T02:28:21.612Z,94223.03
2023-03-11T02:30:49.629Z,94215.56
2023-03-11T02:33:17.903Z,94229.72
2023-03-11T02:35:45.697Z,94230.25
2023-03-11T02:38:14.050Z,94228.41
2023-03-11T02:40:49.999Z,94235.06
2023-03-11T02:43:23.912Z,94237.50
2023-03-11T02:45:51.786Z,94236.94
2023-03-11T02:48:20.430Z,94227.84
2023-03-11T02:50:48.669Z,94227.28
2023-03-11T02:53:16.774Z,94239.84
2023-03-11T02:55:44.475Z,94246.53
2023-03-11T02:58:12.150Z,94241.72
2023-03-11T03:00:41.270Z,94242.22
2023-03-11T03:03:10.512Z,94244.09
2023-03-11T03:05:38.449Z,94247.00
2023-03-11T03:08:06.490Z,94243.25
2023-03-11T03:10:34.285Z,94262.47
2023-03-11T03:13:01.942Z,94258.47
2023-03-11T03:15:30.342Z,94258.69
2023-03-11T03:17:59.507Z,94264.00
2023-03-11T03:20:27.261Z,94263.22
2023-03-11T03:22:55.708Z,94253.34
2023-03-11T03:25:23.513Z,94254.66
2023-03-11T03:27:51.512Z,94263.72
2023-03-11T03:30:21.928Z,94285.09
2023-03-11T03:32:49.666Z,94281.31
2023-03-11T03:35:19.004Z,94280.75
2023-03-11T03:37:46.816Z,94274.38
2023-03-11T03:40:15.137Z,94269.28
2023-03-11T03:42:42.883Z,94275.94
2023-03-11T03:45:11.911Z,94286.63
2023-03-11T03:47:39.670Z,94293.56
2023-03-11T03:50:14.739Z,94295.97
2023-03-11T03:52:43.943Z,94290.91
2023-03-11T03:55:11.675Z,94271.34
2023-03-11T03:57:41.132Z,94283.03
2023-03-11T04:00:10.251Z,94291.53
2023-03-11T04:02:38.012Z,94278.19
2023-03-11T04:05:06.592Z,94292.09
2023-03-11T04:07:35.701Z,94302.22
2023-03-11T04:10:05.733Z,94294.50
2023-03-11T04:12:33.492Z,94304.09
2023-03-11T04:15:01.233Z,94315.56
2023-03-11T04:17:28.970Z,94311.28
2023-03-11T04:19:59.323Z,94301.34
2023-03-11T04:22:27.030Z,94296.25
2023-03-11T04:24:54.736Z,94293.59
2023-03-11T04:27:23.790Z,94293.25
2023-03-11T04:29:51.513Z,94290.84
2023-03-11T04:32:19.290Z,94295.38
2023-03-11T04:34:47.046Z,94302.22
2023-03-11T04:37:14.820Z,94294.50
2023-03-11T04:39:42.509Z,94286.81
2023-03-11T04:42:10.192Z,94297.50
2023-03-11T04:44:39.260Z,94306.84
2023-03-11T04:47:07.144Z,94306.25
2023-03-11T04:49:34.864Z,94304.63
2023-03-11T04:52:02.581Z,94303.78
2023-03-11T04:54:30.337Z,94310.47
2023-03-11T04:57:06.308Z,94304.56
2023-03-11T04:59:34.143Z,94308.78
2023-03-11T05:02:03.165Z,94307.22
2023-03-11T05:04:31.100Z,94318.03
2023-03-11T05:06:58.774Z,94324.25
2023-03-11T05:09:26.558Z,94325.38
2023-03-11T05:11:54.350Z,94317.16
2023-03-11T05:14:22.549Z,94329.16
2023-03-11T05:16:50.261Z,94333.25
2023-03-11T05:19:36.235Z,94341.81
2023-03-11T05:22:05.473Z,94338.41
2023-03-11T05:24:33.539Z,94341.06
2023-03-11T05:27:01.948Z,94334.13
2023-03-11T05:29:29.874Z,94344.56
2023-03-11T05:31:57.579Z,94344.56
2023-03-11T05:34:26.788Z,94342.44
2023-03-11T05:36:54.528Z,94356.03
2023-03-11T05:39:22.184Z,94360.56
2023-03-11T05:41:49.892Z,94356.03
2023-03-11T05:44:17.566Z,94358.16
2023-03-11T05:46:45.404Z,94356.03
2023-03-11T05:49:13.127Z,94363.50
2023-03-11T05:51:42.156Z,94361.31
2023-03-11T05:54:14.881Z,94364.53
2023-03-11T05:56:42.896Z,94362.97
2023-03-11T05:59:11.362Z,94370.78
2023-03-11T06:01:39.438Z,94365.44
2023-03-11T06:04:07.547Z,94367.78
2023-03-11T06:06:36.400Z,94365.09
2023-03-11T06:09:12.453Z,94369.91
2023-03-11T06:11:40.147Z,94360.56
2023-03-11T06:14:07.831Z,94371.25
2023-03-11T06:16:35.795Z,94383.53
2023-03-11T06:19:03.489Z,94379.50
2023-03-11T06:21:31.272Z,94387.53
2023-03-11T06:23:58.971Z,94389.38
2023-03-11T06:26:28.470Z,94395.53
2023-03-11T06:28:56.168Z,94406.25
2023-03-11T06:31:26.212Z,94401.19
2023-03-11T06:33:56.933Z,94402.25
2023-03-11T06:36:28.279Z,94401.13
2023-03-11T06:38:56.250Z,94418.75
2023-03-11T06:41:23.942Z,94413.16
2023-03-11T06:43:53.005Z,94419.91
2023-03-11T06:46:22.455Z,94413.88
2023-03-11T06:48:52.157Z,94421.88
2023-03-11T06:51:21.102Z,94419.47
2023-03-11T06:53:50.340Z,94413.56
2023-03-11T06:56:18.146Z,94418.72
2023-03-11T06:58:46.624Z,94424.31
2023-03-11T07:01:18.792Z,94430.53
2023-03-11T07:03:47.495Z,94437.19
2023-03-11T07:06:16.451Z,94437.91
2023-03-11T07:08:44.471Z,94444.00
2023-03-11T07:11:15.590Z,94434.28
2023-03-11T07:13:44.250Z,94441.44
2023-03-11T07:16:15.641Z,94460.44
2023-03-11T07:18:47.063Z,94458.66
2023-03-11T07:21:16.750Z,94472.22
2023-03-11T07:23:44.666Z,94473.09
2023-03-11T07:26:14.248Z,94471.03
2023-03-11T07:28:44.301Z,94482.44
2023-03-11T07:31:14.290Z,94476.81
2023-03-11T07:33:42.000Z,94477.63
2023-03-11T07:36:15.384Z,94490.81
2023-03-11T07:38:43.659Z,94497.22
2023-03-11T07:41:12.266Z,94498.06
2023-03-11T07:43:41.010Z,94505.28
2023-03-11T07:46:10.816Z,94515.31
2023-03-11T07:48:42.128Z,94514.13
2023-03-11T07:51:13.321Z,94513.69
2023-03-11T07:53:41.580Z,94520.28
2023-03-11T07:56:20.002Z,94518.50
2023-03-11T07:58:47.852Z,94520.13
2023-03-11T08:01:17.274Z,94518.38
2023-03-11T08:03:46.598Z,94524.38
2023-03-11T08:06:16.253Z,94527.66
2023-03-11T08:08:44.171Z,94521.50
2023-03-11T08:11:13.584Z,94527.53
2023-03-11T08:13:41.974Z,94521.22
2023-03-11T08:16:11.491Z,94519.38
2023-03-11T08:18:39.320Z,94521.25
2023-03-11T08:21:08.299Z,94518.81
2023-03-11T08:23:40.033Z,94526.94
2023-03-11T08:26:09.071Z,94528.50
2023-03-11T08:28:37.746Z,94534.66
2023-03-11T08:31:13.669Z,94538.38
2023-03-11T08:33:42.628Z,94540.78
2023-03-11T08:36:10.804Z,94549.63
2023-03-11T08:38:40.131Z,94535.28
2023-03-11T08:41:07.877Z,94545.13
2023-03-11T08:43:35.774Z,94536.94
2023-03-11T08:46:06.653Z,94540.25
2023-03-11T08:48:35.075Z,94548.53
2023-03-11T08:51:03.024Z,94552.72
2023-03-11T08:53:30.749Z,94550.03
2023-03-11T08:56:02.707Z,94554.81
2023-03-11T08:58:30.371Z,94562.28
2023-03-11T09:01:00.169Z,94560.75
2023-03-11T09:03:29.465Z,94557.84
2023-03-11T09:06:01.809Z,94567.41
2023-03-11T09:08:29.688Z,94558.31
2023-03-11T09:10:58.723Z,94560.22
2023-03-11T09:13:26.399Z,94558.34
2023-03-11T09:15:54.643Z,94560.31
2023-03-11T09:18:22.442Z,94551.81
2023-03-11T09:20:50.219Z,94551.84
2023-03-11T09:23:18.955Z,94567.84
2023-03-11T09:25:46.624Z,94560.31
2023-03-11T09:28:15.676Z,94564.34
2023-03-11T09:30:43.378Z,94557.00
2023-03-11T09:33:11.119Z,94555.13
2023-03-11T09:35:39.701Z,94559.97
2023-03-11T09:38:07.569Z,94554.88
2023-03-11T09:40:50.161Z,94558.91
2023-03-11T09:43:32.007Z,94559.75
2023-03-11T09:46:12.388Z,94559.75
2023-03-11T09:48:45.590Z,94557.34
2023-03-11T09:51:21.613Z,94561.94
2023-03-11T09:54:00.712Z,94558.72
2023-03-11T09:56:28.740Z,94560.31
2023-03-11T09:59:03.098Z,94557.59
2023-03-11T10:01:34.496Z,94565.94
2023-03-11T10:04:11.372Z,94573.97
2023-03-11T10:06:40.724Z,94577.69
2023-03-11T10:09:26.206Z,94574.22
2023-03-11T10:12:14.505Z,94581.22
2023-03-11T10:15:06.893Z,94585.81
2023-03-11T10:18:04.595Z,94583.97
2023-03-11T10:20:42.509Z,94574.31
2023-03-11T10:23:19.896Z,94583.25
2023-03-11T10:25:58.039Z,94567.03
2023-03-11T10:28:32.302Z,94576.13
2023-03-11T10:31:08.118Z,94574.88
2023-03-11T10:33:42.129Z,94575.16
2023-03-11T10:36:15.359Z,94577.63
2023-03-11T10:38:47.000Z,94592.84
2023-03-11T10:41:22.715Z,94585.50
2023-03-11T10:43:53.805Z,94592.75
2023-03-11T10:46:27.248Z,94594.09
2023-03-11T10:48:55.287Z,94583.00
2023-03-11T10:51:23.823Z,94589.63
2023-03-11T10:53:54.372Z,94595.66
2023-03-11T10:56:27.798Z,94591.00
2023-03-11T10:58:55.856Z,94585.47
2023-03-11T11:01:26.067Z,94586.00
2023-03-11T11:03:56.434Z,94586.50
2023-03-11T11:06:27.465Z,94597.63
2023-03-11T11:09:22.926Z,94597.53
2023-03-11T11:12:06.580Z,94592.75
2023-03-11T11:14:47.830Z,94587.56
2023-03-11T11:17:21.628Z,94581.19
2023-03-11T11:19:50.844Z,94564.72
2023-03-11T11:22:22.064Z,94557.53
2023-03-11T11:24:52.280Z,94566.34
2023-03-11T11:27:22.584Z,94570.00
2023-03-11T11:30:14.734Z,94567.38
2023-03-11T11:32:44.050Z,94576.25
2023-03-11T11:35:13.773Z,94578.69
2023-03-11T11:37:44.573Z,94575.28
2023-03-11T11:40:24.673Z,94568.31
2023-03-11T11:42:56.686Z,94558.56
2023-03-11T11:45:31.881Z,94571.84
2023-03-11T11:48:05.831Z,94554.50
2023-03-11T11:50:36.504Z,94563.94
2023-03-11T11:53:14.675Z,94570.63
2023-03-11T11:55:48.365Z,94573.00
2023-03-11T11:58:16.345Z,94575.13
2023-03-11T12:00:57.986Z,94572.63
2023-03-11T12:03:45.650Z,94566.09
2023-03-11T12:06:26.207Z,94549.00
2023-03-11T12:09:05.562Z,94566.59
2023-03-11T12:11:41.995Z,94562.25
2023-03-11T12:14:18.560Z,94571.81
2023-03-11T12:16:53.576Z,94549.13
2023-03-11T12:19:34.795Z,94545.16
2023-03-11T12:22:46.854Z,94539.75
2023-03-11T12:25:24.131Z,94539.44
2023-03-11T12:27:58.930Z,94557.66
2023-03-11T12:30:30.445Z,94551.28
2023-03-11T12:33:02.249Z,94546.44
2023-03-11T12:35:33.892Z,94528.06
2023-03-11T12:38:08.832Z,94546.50
2023-03-11T12:41:03.564Z,94551.84
2023-03-11T12:44:10.829Z,94537.06
2023-03-11T12:47:25.140Z,94538.06
2023-03-11T12:49:55.248Z,94524.38
2023-03-11T12:52:29.369Z,94535.56
2023-03-11T12:55:38.729Z,94529.72
2023-03-11T12:58:34.627Z,94525.31
2023-03-11T13:01:18.539Z,94527.63
2023-03-11T13:03:59.013Z,94518.13
2023-03-11T13:06:57.353Z,94520.97
2023-03-11T13:09:26.691Z,94530.69
2023-03-11T13:11:54.425Z,94523.22
2023-03-11T13:14:30.260Z,94522.66
2023-03-11T13:17:18.588Z,94528.22
2023-03-11T13:19:52.132Z,94517.97
2023-03-11T13:22:42.623Z,94524.59
2023-03-11T13:25:28.067Z,94533.94
2023-03-11T13:28:04.517Z,94544.63
2023-03-11T13:30:39.922Z,94540.88
2023-03-11T13:33:36.699Z,94547.34
2023-03-11T13:36:19.445Z,94551.47
2023-03-11T13:39:16.369Z,94550.59
2023-03-11T13:41:46.135Z,94555.81
2023-03-11T13:44:28.654Z,94561.78
2023-03-11T13:47:02.326Z,94551.03
2023-03-11T13:49:38.114Z,94553.16
2023-03-11T13:52:10.573Z,94553.19
2023-03-11T13:54:46.461Z,94558.75
2023-03-11T13:57:28.903Z,94560.44
2023-03-11T13:59:57.910Z,94551.53
2023-03-11T14:02:27.373Z,94551.06
2023-03-11T14:04:58.943Z,94537.59
2023-03-11T14:07:29.572Z,94538.41
2023-03-11T14:10:33.564Z,94548.28
2023-03-11T14:13:19.626Z,94551.16
2023-03-11T14:15:52.336Z,94539.19
2023-03-11T14:18:40.139Z,94535.53
2023-03-11T14:21:14.758Z,94538.22
2023-03-11T14:23:45.179Z,94532.06
2023-03-11T14:26:18.558Z,94545.34
2023-03-11T14:28:50.758Z,94552.59
2023-03-11T14:31:30.210Z,94557.25
2023-03-11T14:34:04.190Z,94561.38
2023-03-11T14:36:40.127Z,94563.28
2023-03-11T14:39:22.749Z,94555.47
2023-03-11T14:41:51.727Z,94558.22
2023-03-11T14:44:21.185Z,94573.16
2023-03-11T14:46:50.624Z,94576.78
2023-03-11T14:49:23.297Z,94566.50
2023-03-11T14:51:55.991Z,94572.34
2023-03-11T14:54:27.187Z,94581.50
2023-03-11T14:57:00.975Z,94575.84
2023-03-11T14:59:33.319Z,94582.81
2023-03-11T15:02:21.737Z,94590.41
2023-03-11T15:04:49.911Z,94592.94
2023-03-11T15:07:21.567Z,94594.78
2023-03-11T15:09:49.401Z,94600.53
2023-03-11T15:12:32.608Z,94608.41
2023-03-11T15:15:01.705Z,94600.13
2023-03-11T15:17:41.363Z,94601.88
2023-03-11T15:20:25.685Z,94606.72
2023-03-11T15:22:58.168Z,94603.94
2023-03-11T15:25:25.877Z,94614.88
2023-03-11T15:27:53.614Z,94610.25
2023-03-11T15:30:25.808Z,94614.25
2023-03-11T15:32:54.132Z,94621.03
2023-03-11T15:35:24.137Z,94622.00
2023-03-11T15:38:11.904Z,94619.00
2023-03-11T15:40:45.618Z,94622.50
2023-03-11T15:43:24.929Z,94611.19
2023-03-11T15:45:55.537Z,94616.25
2023-03-11T15:48:23.944Z,94622.16
2023-03-11T15:50:54.737Z,94625.88
2023-03-11T15:53:23.421Z,94625.94
2023-03-11T15:55:52.559Z,94619.97
2023-03-11T15:58:21.770Z,94630.72
2023-03-11T16:00:51.768Z,94637.22
2023-03-11T16:03:21.128Z,94635.88
2023-03-11T16:05:49.197Z,94642.84
2023-03-11T16:08:17.555Z,94646.84
2023-03-11T16:10:45.398Z,94647.38
2023-03-11T16:13:14.186Z,94649.59
2023-03-11T16:15:42.707Z,94645.31
2023-03-11T16:18:11.076Z,94650.19
2023-03-11T16:20:42.942Z,94637.91
2023-03-11T16:23:16.890Z,94641.41
2023-03-11T16:25:45.078Z,94650.28
2023-03-11T16:28:15.365Z,94646.53
2023-03-11T16:30:43.056Z,94650.28
2023-03-11T16:33:11.257Z,94652.41
2023-03-11T16:35:40.404Z,94652.72
2023-03-11T16:38:08.467Z,94668.00
2023-03-11T16:40:36.809Z,94667.47
2023-03-11T16:43:06.712Z,94670.94
2023-03-11T16:45:34.417Z,94676.56
2023-03-11T16:48:02.203Z,94686.22
2023-03-11T16:50:30.023Z,94690.47
2023-03-11T16:52:59.744Z,94696.94
2023-03-11T16:55:29.326Z,94704.16
2023-03-11T16:57:59.120Z,94701.47
2023-03-11T17:00:27.258Z,94706.00
2023-03-11T17:02:54.951Z,94706.50
2023-03-11T17:05:22.867Z,94710.81
2023-03-11T17:07:54.872Z,94706.19
2023-03-11T17:10:24.810Z,94717.47
2023-03-11T17:12:52.589Z,94724.41
2023-03-11T17:15:20.757Z,94729.16
2023-03-11T17:17:48.601Z,94732.91
2023-03-11T17:20:16.297Z,94732.41
2023-03-11T17:22:43.952Z,94735.88
2023-03-11T17:25:11.644Z,94737.47
2023-03-11T17:27:40.732Z,94756.75
2023-03-11T17:30:09.832Z,94762.63
2023-03-11T17:32:37.598Z,94765.00
2023-03-11T17:35:06.265Z,94769.31
2023-03-11T17:37:34.236Z,94780.53
2023-03-11T17:40:01.954Z,94787.25
2023-03-11T17:42:29.743Z,94792.31
2023-03-11T17:44:59.184Z,94797.16
2023-03-11T17:47:27.061Z,94790.44
2023-03-11T17:49:55.018Z,94792.56
2023-03-11T17:52:22.738Z,94788.53
2023-03-11T17:54:51.847Z,94777.84
2023-03-11T17:57:19.493Z,94788.53
2023-03-11T17:59:50.854Z,94789.56
2023-03-11T18:02:20.419Z,94793.53
2023-03-11T18:04:52.095Z,94787.09
2023-03-11T18:07:22.965Z,94798.31
2023-03-11T18:09:52.232Z,94808.47
2023-03-11T18:12:20.694Z,94815.66
2023-03-11T18:14:48.425Z,94817.25
2023-03-11T18:17:18.328Z,94815.72
2023-03-11T18:19:49.728Z,94812.72
2023-03-11T18:22:17.405Z,94815.06
2023-03-11T18:24:47.859Z,94818.88
2023-03-11T18:27:15.468Z,94808.09
2023-03-11T18:29:43.867Z,94823.41
2023-03-11T18:32:14.088Z,94825.22
2023-03-11T18:34:41.851Z,94825.22
2023-03-11T18:37:12.185Z,94821.63
2023-03-11T18:39:40.371Z,94828.53
2023-03-11T18:42:08.098Z,94826.84
2023-03-11T18:44:36.982Z,94820.34
2023-03-11T18:47:04.782Z,94839.50
2023-03-11T18:49:32.549Z,94836.66
2023-03-11T18:52:00.329Z,94851.81
2023-03-11T18:54:30.046Z,94838.50
2023-03-11T18:56:57.708Z,94846.06
2023-03-11T18:59:27.468Z,94848.03
2023-03-11T19:01:55.279Z,94845.72
2023-03-11T19:04:23.045Z,94853.19
2023-03-11T19:06:51.103Z,94846.06
2023-03-11T19:09:19.342Z,94848.41
2023-03-11T19:11:49.427Z,94850.53
2023-03-11T19:14:19.627Z,94852.88
2023-03-11T19:16:47.331Z,94851.91
2023-03-11T19:19:15.054Z,94862.59
2023-03-11T19:21:43.279Z,94858.44
2023-03-11T19:24:11.367Z,94874.09
2023-03-11T19:26:45.491Z,94875.03
2023-03-11T19:29:19.389Z,94874.72
2023-03-11T19:31:48.362Z,94879.31
2023-03-11T19:34:16.104Z,94884.53
2023-03-11T19:36:43.839Z,94890.00
2023-03-11T19:39:11.622Z,94894.78
2023-03-11T19:41:39.378Z,94890.56
2023-03-11T19:44:07.085Z,94893.25
2023-03-11T19:46:36.433Z,94895.56
2023-03-11T19:49:04.835Z,94897.63
2023-03-11T19:51:48.569Z,94905.22
2023-03-11T19:54:17.206Z,94903.25
2023-03-11T19:56:45.061Z,94901.91
2023-03-11T19:59:12.777Z,94911.19
2023-03-11T20:01:42.816Z,94906.56
2023-03-11T20:04:11.112Z,94910.41
2023-03-11T20:06:38.926Z,94919.88
2023-03-11T20:09:07.010Z,94923.25
2023-03-11T20:11:34.775Z,94922.81
2023-03-11T20:14:02.418Z,94922.72
2023-03-11T20:16:30.163Z,94922.59
2023-03-11T20:18:59.514Z,94926.47
2023-03-11T20:21:27.228Z,94923.44
2023-03-11T20:23:57.136Z,94925.91
2023-03-11T20:26:25.395Z,94933.00
2023-03-11T20:28:56.021Z,94941.34
2023-03-11T20:31:25.993Z,94932.31
2023-03-11T20:33:54.639Z,94933.81
2023-03-11T20:36:25.659Z,94940.09
2023-03-11T20:38:55.343Z,94937.53
2023-03-11T20:41:24.596Z,94939.72
2023-03-11T20:43:52.668Z,94941.34
2023-03-11T20:46:20.854Z,94943.56
2023-03-11T20:48:48.799Z,94934.13
2023-03-11T20:51:20.749Z,94933.44
2023-03-11T20:53:50.127Z,94935.03
2023-03-11T20:56:20.059Z,94938.19
2023-03-11T20:58:50.856Z,94932.72
2023-03-11T21:01:21.033Z,94943.00
2023-03-11T21:03:49.793Z,94944.72
2023-03-11T21:06:19.161Z,94941.16
2023-03-11T21:08:47.246Z,94946.03
2023-03-11T21:11:17.643Z,94942.91
2023-03-11T21:13:45.600Z,94940.94
2023-03-11T21:16:14.614Z,94945.56
2023-03-11T21:18:43.145Z,94946.84
2023-03-11T21:21:11.762Z,94952.31
2023-03-11T21:23:40.710Z,94953.56
2023-03-11T21:26:09.481Z,94945.22
2023-03-11T21:28:40.042Z,94944.66
2023-03-11T21:31:10.832Z,94945.81
2023-03-11T21:33:39.789Z,94943.50
2023-03-11T21:36:09.628Z,94951.94
2023-03-11T21:38:37.886Z,94947.38
2023-03-11T21:41:08.155Z,94956.53
2023-03-11T21:43:36.797Z,94953.72
2023-03-11T21:46:07.439Z,94956.53
2023-03-11T21:48:35.440Z,94959.44
2023-03-11T21:51:03.733Z,94956.97
2023-03-11T21:53:32.222Z,94955.50
2023-03-11T21:56:00.104Z,94964.97
2023-03-11T21:58:28.066Z,94962.19
2023-03-11T22:00:56.051Z,94959.53
2023-03-11T22:03:25.282Z,94963.75
2023-03-11T22:05:58.428Z,94960.50
2023-03-11T22:08:26.678Z,94956.94
2023-03-11T22:10:54.906Z,94955.75
2023-03-11T22:13:23.609Z,94959.06
2023-03-11T22:15:51.938Z,94963.13
2023-03-11T22:18:20.159Z,94955.97
2023-03-11T22:20:49.312Z,94963.34
2023-03-11T22:23:17.126Z,94963.81
2023-03-11T22:25:45.024Z,94969.50
2023-03-11T22:28:13.042Z,94970.97
2023-03-11T22:30:40.798Z,94971.66
2023-03-11T22:33:08.571Z,94970.63
2023-03-11T22:35:36.488Z,94973.50
2023-03-11T22:38:06.779Z,94970.94
2023-03-11T22:40:35.030Z,94969.53
2023-03-11T22:43:02.775Z,94967.19
2023-03-11T22:45:30.463Z,94968.06
2023-03-11T22:47:58.133Z,94972.06
2023-03-11T22:50:25.948Z,94971.09
2023-03-11T22:52:53.651Z,94979.91
2023-03-11T23:00:19.506Z,94988.81
2023-03-11T23:02:48.970Z,94986.53
2023-03-11T23:05:17.168Z,94977.06
2023-03-11T23:07:45.529Z,94989.19
2023-03-11T23:10:15.167Z,94990.09
2023-03-11T23:12:43.337Z,95000.34
2023-03-11T23:15:14.318Z,94997.91
2023-03-11T23:17:43.408Z,94999.44
2023-03-11T23:20:14.629Z,95004.03
2023-03-11T23:22:43.575Z,95004.09
2023-03-11T23:25:14.434Z,95003.13
2023-03-11T23:27:42.952Z,95006.16
2023-03-11T23:30:12.696Z,95005.72
2023-03-11T23:32:40.434Z,94998.75
2023-03-11T23:35:10.403Z,94994.31
2023-03-11T23:37:38.222Z,95001.44
2023-03-11T23:40:07.076Z,94992.84
2023-03-11T23:42:36.080Z,94993.75
2023-03-11T23:45:04.057Z,94992.34
2023-03-11T23:47:31.800Z,94990.44
2023-03-11T23:49:59.488Z,94998.34
2023-03-11T23:52:28.643Z,95001.66
2023-03-11T23:54:56.643Z,95000.03
2023-03-11T23:57:24.466Z,95005.50
2023-03-11T23:59:52.159Z,95003.28
